Terminal Aerodrome Forecast
Issued by NWS Quad Cities IA IL

Home | Current Version | Previous Version | Text Only | Print | Product List | Glossary On
Versions: 1 2 3 4 5 6 7 8 9 10 11 12 13 14 15 16 17 18 19 20 21 22 23 24 25 26 27
000
FTUS43 KDVN 231700
TAFDBQ
TAF
KDBQ 231730Z 2318/2418 03012KT P6SM SCT050
     FM240100 06003KT P6SM SKC=

USA.gov is the U.S. government's official web portal to all federal, state and local government web resources and services.